sensor_id;sensor_type;location;lat;lon;timestamp;P1;durP1;ratioP1;P2;durP2;ratioP2
66327;SDS011;53133;52.862;6.602;2022-09-12T00:01:12;7.65;;;6.88;;
66327;SDS011;53133;52.862;6.602;2022-09-12T00:03:40;7.43;;;6.72;;
66327;SDS011;53133;52.862;6.602;2022-09-12T00:06:06;7.25;;;6.55;;
66327;SDS011;53133;52.862;6.602;2022-09-12T00:08:43;8.35;;;6.82;;
66327;SDS011;53133;52.862;6.602;2022-09-12T00:11:10;8.25;;;7.18;;
66327;SDS011;53133;52.862;6.602;2022-09-12T00:13:37;7.35;;;6.60;;
66327;SDS011;53133;52.862;6.602;2022-09-12T00:16:03;9.50;;;7.40;;
66327;SDS011;53133;52.862;6.602;2022-09-12T00:18:29;8.93;;;8.02;;
66327;SDS011;53133;52.862;6.602;2022-09-12T00:20:56;8.13;;;7.32;;
66327;SDS011;53133;52.862;6.602;2022-09-12T00:23:21;9.52;;;7.78;;
66327;SDS011;53133;52.862;6.602;2022-09-12T00:25:47;9.65;;;8.10;;
66327;SDS011;53133;52.862;6.602;2022-09-12T00:28:14;10.15;;;7.78;;
66327;SDS011;53133;52.862;6.602;2022-09-12T00:30:45;9.02;;;8.10;;
66327;SDS011;53133;52.862;6.602;2022-09-12T00:33:12;9.98;;;8.20;;
66327;SDS011;53133;52.862;6.602;2022-09-12T00:35:49;9.75;;;7.45;;
66327;SDS011;53133;52.862;6.602;2022-09-12T00:38:17;12.15;;;7.72;;
66327;SDS011;53133;52.862;6.602;2022-09-12T00:40:43;8.48;;;7.70;;
66327;SDS011;53133;52.862;6.602;2022-09-12T00:43:11;9.02;;;7.63;;
66327;SDS011;53133;52.862;6.602;2022-09-12T00:45:56;8.25;;;7.53;;
66327;SDS011;53133;52.862;6.602;2022-09-12T00:48:25;8.65;;;7.75;;
66327;SDS011;53133;52.862;6.602;2022-09-12T00:50:58;9.05;;;7.50;;
66327;SDS011;53133;52.862;6.602;2022-09-12T00:53:24;10.00;;;8.05;;
66327;SDS011;53133;52.862;6.602;2022-09-12T00:55:50;9.45;;;8.35;;
66327;SDS011;53133;52.862;6.602;2022-09-12T01:00:53;12.48;;;8.25;;
66327;SDS011;53133;52.862;6.602;2022-09-12T01:03:21;9.85;;;8.15;;
66327;SDS011;53133;52.862;6.602;2022-09-12T01:06:10;9.65;;;8.15;;
66327;SDS011;53133;52.862;6.602;2022-09-12T01:08:47;11.07;;;8.40;;
66327;SDS011;53133;52.862;6.602;2022-09-12T01:11:15;9.45;;;8.45;;
66327;SDS011;53133;52.862;6.602;2022-09-12T01:13:42;14.20;;;8.20;;
66327;SDS011;53133;52.862;6.602;2022-09-12T01:16:08;13.05;;;7.90;;
66327;SDS011;53133;52.862;6.602;2022-09-12T01:21:17;8.53;;;7.70;;
66327;SDS011;53133;52.862;6.602;2022-09-12T01:24:09;8.23;;;7.40;;
66327;SDS011;53133;52.862;6.602;2022-09-12T01:40:30;10.93;;;9.43;;
66327;SDS011;53133;52.862;6.602;2022-09-12T01:46:06;9.90;;;8.52;;
66327;SDS011;53133;52.862;6.602;2022-09-12T01:48:45;10.27;;;9.25;;
66327;SDS011;53133;52.862;6.602;2022-09-12T01:51:22;13.13;;;9.50;;
66327;SDS011;53133;52.862;6.602;2022-09-12T01:54:00;10.80;;;9.15;;
66327;SDS011;53133;52.862;6.602;2022-09-12T01:56:34;9.65;;;8.65;;
66327;SDS011;53133;52.862;6.602;2022-09-12T02:01:52;10.38;;;8.68;;
66327;SDS011;53133;52.862;6.602;2022-09-12T02:04:27;13.30;;;10.82;;
66327;SDS011;53133;52.862;6.602;2022-09-12T02:07:21;12.73;;;11.05;;
66327;SDS011;53133;52.862;6.602;2022-09-12T02:09:49;13.68;;;11.52;;
66327;SDS011;53133;52.862;6.602;2022-09-12T02:15:02;10.40;;;9.35;;
66327;SDS011;53133;52.862;6.602;2022-09-12T02:17:34;12.38;;;11.02;;
66327;SDS011;53133;52.862;6.602;2022-09-12T02:20:11;13.63;;;12.18;;
66327;SDS011;53133;52.862;6.602;2022-09-12T02:22:44;18.63;;;12.90;;
66327;SDS011;53133;52.862;6.602;2022-09-12T02:25:12;18.58;;;15.00;;
66327;SDS011;53133;52.862;6.602;2022-09-12T02:27:49;17.15;;;13.18;;
66327;SDS011;53133;52.862;6.602;2022-09-12T02:30:18;18.40;;;14.45;;
66327;SDS011;53133;52.862;6.602;2022-09-12T02:32:57;15.55;;;12.55;;
66327;SDS011;53133;52.862;6.602;2022-09-12T02:35:47;17.10;;;13.18;;
66327;SDS011;53133;52.862;6.602;2022-09-12T02:40:45;18.95;;;14.70;;
66327;SDS011;53133;52.862;6.602;2022-09-12T02:43:11;17.95;;;15.15;;
66327;SDS011;53133;52.862;6.602;2022-09-12T02:45:36;22.55;;;18.80;;
66327;SDS011;53133;52.862;6.602;2022-09-12T02:48:16;20.40;;;16.95;;
66327;SDS011;53133;52.862;6.602;2022-09-12T02:50:49;25.17;;;19.25;;
66327;SDS011;53133;52.862;6.602;2022-09-12T02:53:15;22.92;;;17.17;;
66327;SDS011;53133;52.862;6.602;2022-09-12T02:55:41;24.67;;;19.50;;
66327;SDS011;53133;52.862;6.602;2022-09-12T02:58:08;22.58;;;18.17;;
66327;SDS011;53133;52.862;6.602;2022-09-12T03:00:50;24.40;;;19.27;;
66327;SDS011;53133;52.862;6.602;2022-09-12T03:03:41;26.63;;;20.13;;
66327;SDS011;53133;52.862;6.602;2022-09-12T03:06:27;25.20;;;18.77;;
66327;SDS011;53133;52.862;6.602;2022-09-12T03:09:12;28.15;;;20.25;;
66327;SDS011;53133;52.862;6.602;2022-09-12T03:12:06;22.20;;;18.75;;
66327;SDS011;53133;52.862;6.602;2022-09-12T03:20:04;28.23;;;21.60;;
66327;SDS011;53133;52.862;6.602;2022-09-12T03:25:42;24.90;;;19.25;;
66327;SDS011;53133;52.862;6.602;2022-09-12T03:28:15;24.23;;;18.63;;
66327;SDS011;53133;52.862;6.602;2022-09-12T03:30:43;24.20;;;17.98;;
66327;SDS011;53133;52.862;6.602;2022-09-12T03:33:11;21.13;;;17.30;;
66327;SDS011;53133;52.862;6.602;2022-09-12T03:35:38;22.40;;;17.23;;
66327;SDS011;53133;52.862;6.602;2022-09-12T03:38:04;21.63;;;16.70;;
66327;SDS011;53133;52.862;6.602;2022-09-12T03:40:32;22.88;;;18.40;;
66327;SDS011;53133;52.862;6.602;2022-09-12T03:43:01;23.00;;;17.48;;
66327;SDS011;53133;52.862;6.602;2022-09-12T03:45:28;24.27;;;18.00;;
66327;SDS011;53133;52.862;6.602;2022-09-12T03:47:53;26.27;;;19.42;;
66327;SDS011;53133;52.862;6.602;2022-09-12T03:50:19;25.70;;;20.08;;
66327;SDS011;53133;52.862;6.602;2022-09-12T03:52:44;26.92;;;20.35;;
66327;SDS011;53133;52.862;6.602;2022-09-12T03:55:10;27.45;;;20.17;;
66327;SDS011;53133;52.862;6.602;2022-09-12T03:57:36;31.48;;;22.77;;
66327;SDS011;53133;52.862;6.602;2022-09-12T04:00:03;37.65;;;26.45;;
66327;SDS011;53133;52.862;6.602;2022-09-12T04:02:29;37.45;;;25.15;;
66327;SDS011;53133;52.862;6.602;2022-09-12T04:04:55;33.08;;;24.65;;
66327;SDS011;53133;52.862;6.602;2022-09-12T04:07:20;30.75;;;23.42;;
66327;SDS011;53133;52.862;6.602;2022-09-12T04:09:46;40.85;;;27.80;;
66327;SDS011;53133;52.862;6.602;2022-09-12T04:12:12;38.20;;;26.15;;
66327;SDS011;53133;52.862;6.602;2022-09-12T04:14:38;39.80;;;25.95;;
66327;SDS011;53133;52.862;6.602;2022-09-12T04:17:04;33.40;;;24.42;;
66327;SDS011;53133;52.862;6.602;2022-09-12T04:19:29;29.75;;;22.10;;
66327;SDS011;53133;52.862;6.602;2022-09-12T04:21:55;31.70;;;22.17;;
66327;SDS011;53133;52.862;6.602;2022-09-12T04:24:20;31.50;;;22.95;;
66327;SDS011;53133;52.862;6.602;2022-09-12T04:26:46;30.77;;;22.17;;
66327;SDS011;53133;52.862;6.602;2022-09-12T04:29:12;29.73;;;21.77;;
66327;SDS011;53133;52.862;6.602;2022-09-12T04:31:39;33.40;;;22.70;;
66327;SDS011;53133;52.862;6.602;2022-09-12T04:34:05;30.17;;;22.50;;
66327;SDS011;53133;52.862;6.602;2022-09-12T04:36:31;28.50;;;20.52;;
66327;SDS011;53133;52.862;6.602;2022-09-12T04:38:58;29.13;;;21.60;;
66327;SDS011;53133;52.862;6.602;2022-09-12T04:41:26;31.10;;;21.80;;
66327;SDS011;53133;52.862;6.602;2022-09-12T04:43:58;26.27;;;19.80;;
66327;SDS011;53133;52.862;6.602;2022-09-12T04:46:29;30.27;;;21.70;;
66327;SDS011;53133;52.862;6.602;2022-09-12T04:48:56;29.65;;;20.30;;
66327;SDS011;53133;52.862;6.602;2022-09-12T04:51:23;31.48;;;21.85;;
66327;SDS011;53133;52.862;6.602;2022-09-12T04:54:04;32.60;;;22.17;;
66327;SDS011;53133;52.862;6.602;2022-09-12T04:56:41;34.88;;;23.35;;
66327;SDS011;53133;52.862;6.602;2022-09-12T04:59:09;45.00;;;28.33;;
66327;SDS011;53133;52.862;6.602;2022-09-12T05:01:35;39.47;;;25.42;;
66327;SDS011;53133;52.862;6.602;2022-09-12T05:04:01;38.50;;;26.70;;
66327;SDS011;53133;52.862;6.602;2022-09-12T05:06:31;39.25;;;25.83;;
66327;SDS011;53133;52.862;6.602;2022-09-12T05:08:59;41.35;;;27.23;;
66327;SDS011;53133;52.862;6.602;2022-09-12T05:11:27;38.17;;;26.70;;
66327;SDS011;53133;52.862;6.602;2022-09-12T05:13:55;43.90;;;29.25;;
66327;SDS011;53133;52.862;6.602;2022-09-12T05:16:21;48.50;;;30.90;;
66327;SDS011;53133;52.862;6.602;2022-09-12T05:18:48;50.90;;;31.70;;
66327;SDS011;53133;52.862;6.602;2022-09-12T05:21:15;50.55;;;31.80;;
66327;SDS011;53133;52.862;6.602;2022-09-12T05:23:43;50.45;;;31.77;;
66327;SDS011;53133;52.862;6.602;2022-09-12T05:26:15;48.60;;;30.52;;
66327;SDS011;53133;52.862;6.602;2022-09-12T05:28:41;48.13;;;30.77;;
66327;SDS011;53133;52.862;6.602;2022-09-12T05:31:11;51.40;;;31.77;;
66327;SDS011;53133;52.862;6.602;2022-09-12T05:33:42;51.25;;;32.13;;
66327;SDS011;53133;52.862;6.602;2022-09-12T05:36:10;49.63;;;31.33;;
66327;SDS011;53133;52.862;6.602;2022-09-12T05:38:37;52.47;;;32.05;;
66327;SDS011;53133;52.862;6.602;2022-09-12T05:41:08;53.92;;;33.28;;
66327;SDS011;53133;52.862;6.602;2022-09-12T05:43:36;53.53;;;32.60;;
66327;SDS011;53133;52.862;6.602;2022-09-12T05:46:12;53.25;;;33.40;;
66327;SDS011;53133;52.862;6.602;2022-09-12T05:48:41;53.47;;;33.10;;
66327;SDS011;53133;52.862;6.602;2022-09-12T05:51:09;48.92;;;31.98;;
66327;SDS011;53133;52.862;6.602;2022-09-12T05:53:37;55.78;;;33.22;;
66327;SDS011;53133;52.862;6.602;2022-09-12T05:56:14;50.60;;;32.70;;
66327;SDS011;53133;52.862;6.602;2022-09-12T05:58:42;52.63;;;32.83;;
66327;SDS011;53133;52.862;6.602;2022-09-12T06:01:10;54.95;;;32.92;;
66327;SDS011;53133;52.862;6.602;2022-09-12T06:03:43;51.25;;;31.95;;
66327;SDS011;53133;52.862;6.602;2022-09-12T06:06:10;49.10;;;31.42;;
66327;SDS011;53133;52.862;6.602;2022-09-12T06:08:38;55.15;;;34.35;;
66327;SDS011;53133;52.862;6.602;2022-09-12T06:11:05;54.42;;;32.53;;
66327;SDS011;53133;52.862;6.602;2022-09-12T06:13:32;52.95;;;31.85;;
66327;SDS011;53133;52.862;6.602;2022-09-12T06:16:04;50.05;;;32.17;;
66327;SDS011;53133;52.862;6.602;2022-09-12T06:18:32;49.45;;;32.45;;
66327;SDS011;53133;52.862;6.602;2022-09-12T06:21:03;48.03;;;30.58;;
66327;SDS011;53133;52.862;6.602;2022-09-12T06:23:30;51.55;;;32.65;;
66327;SDS011;53133;52.862;6.602;2022-09-12T06:25:55;46.53;;;31.80;;
66327;SDS011;53133;52.862;6.602;2022-09-12T06:28:21;54.28;;;32.75;;
66327;SDS011;53133;52.862;6.602;2022-09-12T06:30:46;48.63;;;32.30;;
66327;SDS011;53133;52.862;6.602;2022-09-12T06:33:13;50.22;;;31.35;;
66327;SDS011;53133;52.862;6.602;2022-09-12T06:35:39;54.15;;;34.28;;
66327;SDS011;53133;52.862;6.602;2022-09-12T06:38:05;54.20;;;32.22;;
66327;SDS011;53133;52.862;6.602;2022-09-12T06:40:31;54.58;;;32.92;;
66327;SDS011;53133;52.862;6.602;2022-09-12T06:42:57;50.72;;;32.63;;
66327;SDS011;53133;52.862;6.602;2022-09-12T06:45:23;54.00;;;31.92;;
66327;SDS011;53133;52.862;6.602;2022-09-12T06:47:50;53.38;;;31.63;;
66327;SDS011;53133;52.862;6.602;2022-09-12T06:50:15;51.90;;;32.10;;
66327;SDS011;53133;52.862;6.602;2022-09-12T06:52:41;60.38;;;34.40;;
66327;SDS011;53133;52.862;6.602;2022-09-12T06:55:08;52.10;;;30.83;;
66327;SDS011;53133;52.862;6.602;2022-09-12T06:57:34;50.95;;;31.38;;
66327;SDS011;53133;52.862;6.602;2022-09-12T07:00:06;49.65;;;31.90;;
66327;SDS011;53133;52.862;6.602;2022-09-12T07:02:32;51.25;;;31.98;;
66327;SDS011;53133;52.862;6.602;2022-09-12T07:04:57;52.65;;;31.35;;
66327;SDS011;53133;52.862;6.602;2022-09-12T07:07:23;49.92;;;31.90;;
66327;SDS011;53133;52.862;6.602;2022-09-12T07:09:49;52.90;;;31.48;;
66327;SDS011;53133;52.862;6.602;2022-09-12T07:12:14;55.67;;;31.60;;
66327;SDS011;53133;52.862;6.602;2022-09-12T07:14:40;53.53;;;31.40;;
66327;SDS011;53133;52.862;6.602;2022-09-12T07:17:05;55.60;;;31.90;;
66327;SDS011;53133;52.862;6.602;2022-09-12T07:19:32;51.03;;;31.60;;
66327;SDS011;53133;52.862;6.602;2022-09-12T07:21:58;50.53;;;32.20;;
66327;SDS011;53133;52.862;6.602;2022-09-12T07:24:24;52.88;;;31.90;;
66327;SDS011;53133;52.862;6.602;2022-09-12T07:26:50;55.67;;;31.33;;
66327;SDS011;53133;52.862;6.602;2022-09-12T07:29:16;48.28;;;30.52;;
66327;SDS011;53133;52.862;6.602;2022-09-12T07:31:42;50.45;;;30.60;;
66327;SDS011;53133;52.862;6.602;2022-09-12T07:34:08;51.25;;;30.15;;
66327;SDS011;53133;52.862;6.602;2022-09-12T07:36:34;45.85;;;28.70;;
66327;SDS011;53133;52.862;6.602;2022-09-12T07:38:59;44.50;;;28.50;;
66327;SDS011;53133;52.862;6.602;2022-09-12T07:41:26;48.10;;;28.30;;
66327;SDS011;53133;52.862;6.602;2022-09-12T07:43:53;49.67;;;28.92;;
66327;SDS011;53133;52.862;6.602;2022-09-12T07:46:21;50.15;;;29.33;;
66327;SDS011;53133;52.862;6.602;2022-09-12T07:48:53;46.38;;;27.88;;
66327;SDS011;53133;52.862;6.602;2022-09-12T07:51:20;46.42;;;27.60;;
66327;SDS011;53133;52.862;6.602;2022-09-12T07:53:47;46.50;;;27.60;;
66327;SDS011;53133;52.862;6.602;2022-09-12T07:56:13;45.15;;;27.88;;
66327;SDS011;53133;52.862;6.602;2022-09-12T07:58:40;44.33;;;26.98;;
66327;SDS011;53133;52.862;6.602;2022-09-12T08:01:13;44.10;;;27.42;;
66327;SDS011;53133;52.862;6.602;2022-09-12T08:03:41;45.10;;;27.33;;
66327;SDS011;53133;52.862;6.602;2022-09-12T08:06:09;41.47;;;26.85;;
66327;SDS011;53133;52.862;6.602;2022-09-12T08:08:36;44.25;;;28.17;;
66327;SDS011;53133;52.862;6.602;2022-09-12T08:11:03;44.40;;;26.92;;
66327;SDS011;53133;52.862;6.602;2022-09-12T08:13:35;42.85;;;27.10;;
66327;SDS011;53133;52.862;6.602;2022-09-12T08:16:03;45.97;;;28.10;;
66327;SDS011;53133;52.862;6.602;2022-09-12T08:18:31;42.03;;;27.50;;
66327;SDS011;53133;52.862;6.602;2022-09-12T08:21:03;44.10;;;26.38;;
66327;SDS011;53133;52.862;6.602;2022-09-12T08:23:31;41.92;;;26.42;;
66327;SDS011;53133;52.862;6.602;2022-09-12T08:25:57;40.10;;;26.52;;
66327;SDS011;53133;52.862;6.602;2022-09-12T08:28:25;41.38;;;26.23;;
66327;SDS011;53133;52.862;6.602;2022-09-12T08:30:51;44.20;;;26.77;;
66327;SDS011;53133;52.862;6.602;2022-09-12T08:33:18;41.88;;;26.52;;
66327;SDS011;53133;52.862;6.602;2022-09-12T08:35:44;38.33;;;25.25;;
66327;SDS011;53133;52.862;6.602;2022-09-12T08:38:11;44.10;;;26.70;;
66327;SDS011;53133;52.862;6.602;2022-09-12T08:40:43;43.45;;;27.02;;
66327;SDS011;53133;52.862;6.602;2022-09-12T08:43:29;45.92;;;27.65;;
66327;SDS011;53133;52.862;6.602;2022-09-12T08:46:07;40.50;;;27.40;;
66327;SDS011;53133;52.862;6.602;2022-09-12T08:48:43;43.58;;;26.10;;
66327;SDS011;53133;52.862;6.602;2022-09-12T08:51:11;40.95;;;27.65;;
66327;SDS011;53133;52.862;6.602;2022-09-12T08:53:39;42.63;;;27.40;;
66327;SDS011;53133;52.862;6.602;2022-09-12T08:56:06;48.63;;;28.75;;
66327;SDS011;53133;52.862;6.602;2022-09-12T08:58:37;49.42;;;28.90;;
66327;SDS011;53133;52.862;6.602;2022-09-12T09:07:03;52.53;;;31.05;;
66327;SDS011;53133;52.862;6.602;2022-09-12T09:14:57;48.35;;;30.38;;
66327;SDS011;53133;52.862;6.602;2022-09-12T09:17:42;50.65;;;29.83;;
66327;SDS011;53133;52.862;6.602;2022-09-12T09:26:12;62.95;;;34.25;;
66327;SDS011;53133;52.862;6.602;2022-09-12T09:28:45;57.53;;;33.75;;
66327;SDS011;53133;52.862;6.602;2022-09-12T09:31:16;58.15;;;32.35;;
66327;SDS011;53133;52.862;6.602;2022-09-12T09:33:43;61.95;;;36.13;;
66327;SDS011;53133;52.862;6.602;2022-09-12T09:36:32;61.20;;;35.97;;
66327;SDS011;53133;52.862;6.602;2022-09-12T09:45:17;65.70;;;35.05;;
66327;SDS011;53133;52.862;6.602;2022-09-12T09:47:50;59.05;;;33.38;;
66327;SDS011;53133;52.862;6.602;2022-09-12T09:50:36;58.75;;;33.60;;
66327;SDS011;53133;52.862;6.602;2022-09-12T09:53:02;57.92;;;33.65;;
66327;SDS011;53133;52.862;6.602;2022-09-12T09:55:39;57.33;;;32.97;;
66327;SDS011;53133;52.862;6.602;2022-09-12T09:58:07;57.70;;;31.20;;
66327;SDS011;53133;52.862;6.602;2022-09-12T10:00:34;56.28;;;33.00;;
66327;SDS011;53133;52.862;6.602;2022-09-12T10:05:54;49.38;;;30.67;;
66327;SDS011;53133;52.862;6.602;2022-09-12T10:08:30;52.17;;;31.55;;
66327;SDS011;53133;52.862;6.602;2022-09-12T10:13:35;47.95;;;29.70;;
66327;SDS011;53133;52.862;6.602;2022-09-12T10:16:05;46.83;;;28.63;;
66327;SDS011;53133;52.862;6.602;2022-09-12T10:18:42;49.58;;;30.45;;
66327;SDS011;53133;52.862;6.602;2022-09-12T10:21:12;44.40;;;28.42;;
66327;SDS011;53133;52.862;6.602;2022-09-12T10:27:13;48.30;;;28.30;;
66327;SDS011;53133;52.862;6.602;2022-09-12T10:29:54;44.58;;;27.08;;
66327;SDS011;53133;52.862;6.602;2022-09-12T10:32:39;38.20;;;25.23;;
66327;SDS011;53133;52.862;6.602;2022-09-12T10:35:15;47.78;;;27.80;;
66327;SDS011;53133;52.862;6.602;2022-09-12T10:37:49;41.28;;;26.33;;
66327;SDS011;53133;52.862;6.602;2022-09-12T10:40:26;41.78;;;26.75;;
66327;SDS011;53133;52.862;6.602;2022-09-12T10:42:55;38.70;;;25.67;;
66327;SDS011;53133;52.862;6.602;2022-09-12T10:45:29;44.03;;;25.75;;
66327;SDS011;53133;52.862;6.602;2022-09-12T10:47:58;34.95;;;24.05;;
66327;SDS011;53133;52.862;6.602;2022-09-12T10:50:26;44.35;;;24.05;;
66327;SDS011;53133;52.862;6.602;2022-09-12T10:55:58;36.40;;;23.05;;
66327;SDS011;53133;52.862;6.602;2022-09-12T10:58:42;37.70;;;21.13;;
66327;SDS011;53133;52.862;6.602;2022-09-12T11:04:02;34.47;;;20.10;;
66327;SDS011;53133;52.862;6.602;2022-09-12T11:09:38;34.63;;;22.42;;
66327;SDS011;53133;52.862;6.602;2022-09-12T11:20:29;38.83;;;22.05;;
66327;SDS011;53133;52.862;6.602;2022-09-12T11:26:00;33.45;;;20.80;;
66327;SDS011;53133;52.862;6.602;2022-09-12T11:33:58;35.30;;;20.40;;
66327;SDS011;53133;52.862;6.602;2022-09-12T11:36:29;31.05;;;19.77;;
66327;SDS011;53133;52.862;6.602;2022-09-12T11:39:16;31.95;;;20.20;;
66327;SDS011;53133;52.862;6.602;2022-09-12T11:41:55;28.02;;;18.35;;
66327;SDS011;53133;52.862;6.602;2022-09-12T11:46:58;28.27;;;18.30;;
66327;SDS011;53133;52.862;6.602;2022-09-12T11:49:36;25.58;;;17.67;;
66327;SDS011;53133;52.862;6.602;2022-09-12T11:52:14;24.83;;;16.52;;
66327;SDS011;53133;52.862;6.602;2022-09-12T12:05:48;28.48;;;17.55;;
66327;SDS011;53133;52.862;6.602;2022-09-12T12:08:17;24.63;;;16.05;;
66327;SDS011;53133;52.862;6.602;2022-09-12T12:10:52;25.80;;;17.27;;
66327;SDS011;53133;52.862;6.602;2022-09-12T12:13:25;29.23;;;18.50;;
66327;SDS011;53133;52.862;6.602;2022-09-12T12:16:01;28.70;;;18.23;;
66327;SDS011;53133;52.862;6.602;2022-09-12T12:18:52;30.40;;;19.15;;
66327;SDS011;53133;52.862;6.602;2022-09-12T12:34:44;20.08;;;13.07;;
66327;SDS011;53133;52.862;6.602;2022-09-12T12:43:26;19.63;;;14.38;;
66327;SDS011;53133;52.862;6.602;2022-09-12T12:47:45;22.38;;;13.77;;
66327;SDS011;53133;52.862;6.602;2022-09-12T12:50:19;16.92;;;11.68;;
66327;SDS011;53133;52.862;6.602;2022-09-12T12:55:30;16.13;;;11.23;;
66327;SDS011;53133;52.862;6.602;2022-09-12T12:57:58;15.05;;;9.77;;
66327;SDS011;53133;52.862;6.602;2022-09-12T13:05:46;8.35;;;6.25;;
66327;SDS011;53133;52.862;6.602;2022-09-12T13:10:47;9.20;;;6.63;;
66327;SDS011;53133;52.862;6.602;2022-09-12T13:13:16;9.25;;;6.70;;
66327;SDS011;53133;52.862;6.602;2022-09-12T13:15:49;11.02;;;7.88;;
66327;SDS011;53133;52.862;6.602;2022-09-12T13:18:22;8.95;;;6.75;;
66327;SDS011;53133;52.862;6.602;2022-09-12T13:24:03;10.18;;;6.80;;
66327;SDS011;53133;52.862;6.602;2022-09-12T13:26:40;8.27;;;6.30;;
66327;SDS011;53133;52.862;6.602;2022-09-12T13:29:26;12.13;;;8.18;;
66327;SDS011;53133;52.862;6.602;2022-09-12T13:31:55;7.68;;;6.80;;
66327;SDS011;53133;52.862;6.602;2022-09-12T13:34:23;9.40;;;6.25;;
66327;SDS011;53133;52.862;6.602;2022-09-12T13:39:47;9.18;;;7.97;;
66327;SDS011;53133;52.862;6.602;2022-09-12T13:47:50;11.35;;;8.15;;
66327;SDS011;53133;52.862;6.602;2022-09-12T13:50:20;10.55;;;7.80;;
66327;SDS011;53133;52.862;6.602;2022-09-12T13:52:53;10.45;;;7.80;;
66327;SDS011;53133;52.862;6.602;2022-09-12T13:55:44;11.88;;;8.32;;
66327;SDS011;53133;52.862;6.602;2022-09-12T14:03:41;8.93;;;7.10;;
66327;SDS011;53133;52.862;6.602;2022-09-12T14:06:44;9.73;;;7.45;;
66327;SDS011;53133;52.862;6.602;2022-09-12T14:09:24;9.77;;;7.00;;
66327;SDS011;53133;52.862;6.602;2022-09-12T14:11:53;10.10;;;7.15;;
66327;SDS011;53133;52.862;6.602;2022-09-12T14:14:41;7.75;;;6.05;;
66327;SDS011;53133;52.862;6.602;2022-09-12T14:17:14;6.72;;;5.88;;
66327;SDS011;53133;52.862;6.602;2022-09-12T14:19:47;6.85;;;5.82;;
66327;SDS011;53133;52.862;6.602;2022-09-12T14:22:14;9.88;;;6.25;;
66327;SDS011;53133;52.862;6.602;2022-09-12T14:24:45;9.80;;;6.43;;
66327;SDS011;53133;52.862;6.602;2022-09-12T14:27:19;6.70;;;5.88;;
66327;SDS011;53133;52.862;6.602;2022-09-12T14:29:59;9.25;;;5.88;;
66327;SDS011;53133;52.862;6.602;2022-09-12T14:32:31;7.15;;;5.70;;
66327;SDS011;53133;52.862;6.602;2022-09-12T14:37:35;6.97;;;5.50;;
66327;SDS011;53133;52.862;6.602;2022-09-12T14:40:02;6.00;;;5.25;;
66327;SDS011;53133;52.862;6.602;2022-09-12T14:42:29;7.05;;;5.45;;
66327;SDS011;53133;52.862;6.602;2022-09-12T14:47:26;5.57;;;4.68;;
66327;SDS011;53133;52.862;6.602;2022-09-12T14:49:56;6.10;;;4.38;;
66327;SDS011;53133;52.862;6.602;2022-09-12T14:52:32;5.70;;;4.13;;
66327;SDS011;53133;52.862;6.602;2022-09-12T14:54:59;4.80;;;4.28;;
66327;SDS011;53133;52.862;6.602;2022-09-12T14:57:30;5.93;;;4.43;;
66327;SDS011;53133;52.862;6.602;2022-09-12T15:02:41;6.72;;;4.47;;
66327;SDS011;53133;52.862;6.602;2022-09-12T15:07:40;5.20;;;4.32;;
66327;SDS011;53133;52.862;6.602;2022-09-12T15:15:29;6.18;;;4.28;;
66327;SDS011;53133;52.862;6.602;2022-09-12T15:17:55;6.35;;;4.10;;
66327;SDS011;53133;52.862;6.602;2022-09-12T15:20:21;4.20;;;3.72;;
66327;SDS011;53133;52.862;6.602;2022-09-12T15:22:47;8.75;;;4.25;;
66327;SDS011;53133;52.862;6.602;2022-09-12T15:25:13;4.90;;;4.05;;
66327;SDS011;53133;52.862;6.602;2022-09-12T15:27:39;4.05;;;3.65;;
66327;SDS011;53133;52.862;6.602;2022-09-12T15:30:05;5.50;;;3.80;;
66327;SDS011;53133;52.862;6.602;2022-09-12T15:32:32;8.50;;;4.57;;
66327;SDS011;53133;52.862;6.602;2022-09-12T15:34:58;6.53;;;4.55;;
66327;SDS011;53133;52.862;6.602;2022-09-12T15:37:24;4.90;;;4.20;;
66327;SDS011;53133;52.862;6.602;2022-09-12T15:39:50;4.80;;;4.10;;
66327;SDS011;53133;52.862;6.602;2022-09-12T15:42:16;5.18;;;4.25;;
66327;SDS011;53133;52.862;6.602;2022-09-12T15:44:46;5.10;;;4.15;;
66327;SDS011;53133;52.862;6.602;2022-09-12T15:47:12;5.13;;;4.00;;
66327;SDS011;53133;52.862;6.602;2022-09-12T15:49:38;6.10;;;4.22;;
66327;SDS011;53133;52.862;6.602;2022-09-12T15:52:05;5.22;;;4.50;;
66327;SDS011;53133;52.862;6.602;2022-09-12T15:54:31;6.93;;;4.93;;
66327;SDS011;53133;52.862;6.602;2022-09-12T15:56:57;6.55;;;5.18;;
66327;SDS011;53133;52.862;6.602;2022-09-12T15:59:23;6.80;;;4.30;;
66327;SDS011;53133;52.862;6.602;2022-09-12T16:01:49;5.63;;;4.10;;
66327;SDS011;53133;52.862;6.602;2022-09-12T16:04:19;6.85;;;5.00;;
66327;SDS011;53133;52.862;6.602;2022-09-12T16:06:47;6.35;;;4.65;;
66327;SDS011;53133;52.862;6.602;2022-09-12T16:09:14;7.50;;;4.70;;
66327;SDS011;53133;52.862;6.602;2022-09-12T16:11:39;5.53;;;4.65;;
66327;SDS011;53133;52.862;6.602;2022-09-12T16:14:05;5.47;;;4.93;;
66327;SDS011;53133;52.862;6.602;2022-09-12T16:16:31;6.68;;;4.80;;
66327;SDS011;53133;52.862;6.602;2022-09-12T16:18:57;6.25;;;4.50;;
66327;SDS011;53133;52.862;6.602;2022-09-12T16:21:23;6.18;;;4.40;;
66327;SDS011;53133;52.862;6.602;2022-09-12T16:23:49;5.13;;;4.63;;
66327;SDS011;53133;52.862;6.602;2022-09-12T16:26:15;6.90;;;5.72;;
66327;SDS011;53133;52.862;6.602;2022-09-12T16:28:41;14.10;;;8.82;;
66327;SDS011;53133;52.862;6.602;2022-09-12T16:31:08;8.32;;;6.10;;
66327;SDS011;53133;52.862;6.602;2022-09-12T16:33:37;8.07;;;4.90;;
66327;SDS011;53133;52.862;6.602;2022-09-12T16:36:10;6.20;;;4.10;;
66327;SDS011;53133;52.862;6.602;2022-09-12T16:38:44;6.15;;;4.68;;
66327;SDS011;53133;52.862;6.602;2022-09-12T16:41:12;5.07;;;4.57;;
66327;SDS011;53133;52.862;6.602;2022-09-12T16:43:39;5.45;;;4.30;;
66327;SDS011;53133;52.862;6.602;2022-09-12T16:46:09;5.60;;;5.07;;
66327;SDS011;53133;52.862;6.602;2022-09-12T16:48:43;7.82;;;5.57;;
66327;SDS011;53133;52.862;6.602;2022-09-12T16:51:11;6.60;;;5.20;;
66327;SDS011;53133;52.862;6.602;2022-09-12T16:53:37;7.35;;;6.03;;
66327;SDS011;53133;52.862;6.602;2022-09-12T16:56:04;9.20;;;6.05;;
66327;SDS011;53133;52.862;6.602;2022-09-12T16:58:36;7.40;;;6.53;;
66327;SDS011;53133;52.862;6.602;2022-09-12T17:01:05;6.90;;;5.72;;
66327;SDS011;53133;52.862;6.602;2022-09-12T17:03:31;7.70;;;5.63;;
66327;SDS011;53133;52.862;6.602;2022-09-12T17:06:02;6.93;;;5.90;;
66327;SDS011;53133;52.862;6.602;2022-09-12T17:08:31;6.97;;;5.03;;
66327;SDS011;53133;52.862;6.602;2022-09-12T17:11:01;6.28;;;5.68;;
66327;SDS011;53133;52.862;6.602;2022-09-12T17:13:29;6.57;;;5.32;;
66327;SDS011;53133;52.862;6.602;2022-09-12T17:15:54;7.32;;;5.38;;
66327;SDS011;53133;52.862;6.602;2022-09-12T17:18:20;8.55;;;5.22;;
66327;SDS011;53133;52.862;6.602;2022-09-12T17:20:47;9.23;;;4.88;;
66327;SDS011;53133;52.862;6.602;2022-09-12T17:23:13;5.03;;;4.47;;
66327;SDS011;53133;52.862;6.602;2022-09-12T17:25:38;5.78;;;4.85;;
66327;SDS011;53133;52.862;6.602;2022-09-12T17:28:04;9.65;;;4.40;;
66327;SDS011;53133;52.862;6.602;2022-09-12T17:30:34;5.45;;;4.50;;
66327;SDS011;53133;52.862;6.602;2022-09-12T17:33:00;8.20;;;5.38;;
66327;SDS011;53133;52.862;6.602;2022-09-12T17:35:26;7.72;;;4.65;;
66327;SDS011;53133;52.862;6.602;2022-09-12T17:37:52;9.20;;;4.88;;
66327;SDS011;53133;52.862;6.602;2022-09-12T17:40:17;9.27;;;5.18;;
66327;SDS011;53133;52.862;6.602;2022-09-12T17:42:43;6.28;;;5.10;;